PILOTS ONLINE: 259    ATC ONLINE: 45

KNKT

Cherry Point MCAS /Cunningham Field/

Location

City Cherry Point
Country  United States
Latitude 34° 54' 3" N
Longitude 76° 52' 50" W
Elevation 29 ft
Type Medium Airport

Map

Weather

METAR
2014/10/23 01:54
KNKT 230154Z 33014G21KT 10SM FEW044 BKN065 15/08 A2998 RMK AO2 SLP150 T01500083 $ 
TAF
2014/10/22 21:59
TAF KNKT 2221/2321 33010KT 9999 BKN050 520009 520903 521809 522709 QNH2992INS 
      TEMPO 2221/2223 33015G23KT 
      BECMG 2223/2301 32008KT 9999 FEW050 520009 520903 521809 522709 QNH2992INS 
     FM230900 33010KT 9999 FEW150 520009 520903 521809 522709 QNH3001INS T10/2310Z T20/2319Z

Runways

05L/23R 7553 ft / 200 ft
05R/23L 8188 ft / 196 ft
14L/32R 8984 ft / 200 ft
14R/32L 8399 ft / 200 ft

Outbound flights

Callsign Flying to Pilot ATD/STD ETA Aircraft

Inbound flights

Callsign Flying from Pilot ATD ETA Aircraft